DW4338 Bergen NO current weather conditions

sailwx.info

Wind from 092 at 23 knots gusting 48

Air temperature 2.2° C
Dewpoint 1.2° C

Last reported at 2014-Dec-21 08:42 UTC.
Time now 2014-Dec-21 10:00 UTC

Location: N 60°31' E 004°54'.
View on Google Maps.

See reports from other nearby stations

  
Tides and Currents Weather Stations Pressure Air Temp Water Temp Dewpoint Dewpoint Depression Visibility Wind Speed Wind Dir Waves Ship Positions
date/time (UTC)wind fromknots sea level pressurealtimeterstation pressurevisibilityair tempwater tempwave heightnotes
2014-Dec-21 08:42 092 23 gusting 48 2.2
2014-Dec-21 08:27 112 17 gusting 38 2.2
2014-Dec-21 08:10 102 17 gusting 31 2.2
2014-Dec-21 07:56 111 19 gusting 36 2.2
2014-Dec-21 07:40 105 21 gusting 34 2.8
2014-Dec-21 07:25 103 17 gusting 33 2.8
2014-Dec-21 07:11 117 18 gusting 30 3.3
2014-Dec-21 06:56 115 11 gusting 32 3.3
2014-Dec-21 06:40 127 13 gusting 26 2.8
2014-Dec-21 06:26 100 15 gusting 30 2.8
2014-Dec-21 06:11 113 12 gusting 23 2.8
2014-Dec-21 05:56 103 10 gusting 21 2.8
2014-Dec-21 05:40 104 15 gusting 22 2.8
2014-Dec-21 05:24 097 11 gusting 19 2.8
2014-Dec-21 05:10 092 10 gusting 19 2.8
2014-Dec-21 04:53 098 10 gusting 24 2.8
2014-Dec-21 04:39 086 14 gusting 19 2.8
2014-Dec-21 04:24 077 10 gusting 17 2.8
2014-Dec-21 04:09 071 9 gusting 17 2.8
2014-Dec-21 03:53 030 5 gusting 13 2.8
2014-Dec-21 03:38 360 1 gusting 7 2.8
2014-Dec-21 03:23 360 2.8
2014-Dec-21 03:08 360 0 gusting 4 2.8
2014-Dec-21 02:54 360 2.8
2014-Dec-21 02:37 355 1 gusting 9 2.8
2014-Dec-21 02:22 344 3.3
2014-Dec-21 02:07 344 2 gusting 10 3.3
2014-Dec-21 01:52 344 7 gusting 19 3.3
2014-Dec-21 01:37 302 6 gusting 19 3.3
2014-Dec-21 01:22 343 3.3
2014-Dec-21 01:06 343 7 gusting 14 3.3
2014-Dec-21 00:51 343 6 gusting 22 3.3
2014-Dec-21 00:36 341 6 gusting 16 3.3
2014-Dec-21 00:21 340 6 gusting 15 3.3
2014-Dec-21 00:06 346 9 gusting 22 3.3
2014-Dec-20 23:51 331 6 gusting 21 2.8
2014-Dec-20 23:36 331 15 gusting 35 2.8
2014-Dec-20 23:21 066 4 gusting 10 3.3
2014-Dec-20 23:05 067 3.3
2014-Dec-20 22:50 340 3.9
2014-Dec-20 22:35 336 19 gusting 39 3.9
2014-Dec-20 22:20 331 18 gusting 31 3.9
2014-Dec-20 22:05 323 21 gusting 39 3.3
2014-Dec-20 21:50 338 15 gusting 26 3.3
2014-Dec-20 21:35 342 16 gusting 28 3.3
2014-Dec-20 21:19 333 13 gusting 26 3.3
2014-Dec-20 21:04 333 14 gusting 32 3.3
2014-Dec-20 20:49 331 19 gusting 32 3.3
2014-Dec-20 20:34 325 19 gusting 45 3.3
2014-Dec-20 20:18 340 19 gusting 34 2.8
2014-Dec-20 20:03 334 11 gusting 23 2.8
2014-Dec-20 19:49 342 19 gusting 51 2.8
2014-Dec-20 19:33 332 15 gusting 27 2.2
2014-Dec-20 19:18 338 2.8
2014-Dec-20 19:02 320 18 gusting 36 2.8
2014-Dec-20 18:47 337 13 gusting 26 2.8
2014-Dec-20 18:32 333 6 gusting 31 2.8
2014-Dec-20 18:17 335 10 gusting 19 3.3
2014-Dec-20 18:02 337 8 gusting 29 2.8
2014-Dec-20 17:47 347 13 gusting 39 2.8
2014-Dec-20 17:31 322 19 gusting 35 3.9
2014-Dec-20 17:16 325 6 gusting 19 3.3
2014-Dec-20 17:01 060 3.3
2014-Dec-20 16:46 082 3.3
2014-Dec-20 16:31 083 1 gusting 13 3.3
2014-Dec-20 16:16 336 2 gusting 13 3.3
2014-Dec-20 16:00 336 6 gusting 25 3.3
2014-Dec-20 15:45 335 7 gusting 19 2.8
2014-Dec-20 15:30 335 4 gusting 21 3.3
2014-Dec-20 15:15 329 4 gusting 14 3.3
2014-Dec-20 15:00 325 12 gusting 23 3.3
2014-Dec-20 14:45 336 15 gusting 32 3.3
2014-Dec-20 14:29 330 11 gusting 23 2.8
2014-Dec-20 14:14 327 13 gusting 26 2.8
2014-Dec-20 13:59 323 5 gusting 19 2.8
2014-Dec-20 13:44 334 11 gusting 22 2.8
2014-Dec-20 13:29 337 9 gusting 25 2.8
2014-Dec-20 13:13 336 6 gusting 22 2.8
2014-Dec-20 12:58 333 5 gusting 26 2.2
2014-Dec-20 12:43 342 6 gusting 21 2.2
2014-Dec-20 12:28 340 6 gusting 26 2.2
2014-Dec-20 12:14 330 11 gusting 33 2.2
2014-Dec-20 11:57 337 9 gusting 33 2.2
2014-Dec-20 11:43 333 19 gusting 38 2.8
2014-Dec-20 11:27 325 19 gusting 46 2.2
2014-Dec-20 11:13 334 16 gusting 29 2.2
2014-Dec-20 10:57 332 4 gusting 19 2.2
2014-Dec-20 10:42 328 12 gusting 36 2.2
2014-Dec-20 10:26 325 15 gusting 23 2.8
2014-Dec-20 10:11 327 16 gusting 37 2.8
2014-Dec-20 09:56 321 26 gusting 53 3.9
2014-Dec-20 09:41 288 20 gusting 36 2.8
2014-Dec-20 09:26 300 11 gusting 26 2.2
2014-Dec-20 09:10 303 21 gusting 49 2.8
2014-Dec-20 08:55 327 37 gusting 66 4.4
2014-Dec-20 08:40 319 17 gusting 44 5.0
2014-Dec-20 08:26 337 16 gusting 33 4.4
2014-Dec-20 08:10 327 11 gusting 23 3.9
2014-Dec-20 07:54 338 2 gusting 14 3.9
2014-Dec-20 07:39 338 4 gusting 28 4.4
2014-Dec-20 07:24 326 14 gusting 42 4.4
2014-Dec-20 07:10 269 17 gusting 37 3.9
2014-Dec-20 06:54 283 31 gusting 46 4.4
2014-Dec-20 06:39 302 16 gusting 38 3.9
2014-Dec-20 06:23 277 27 gusting 43 4.4
2014-Dec-20 06:08 293 17 gusting 33 3.9
2014-Dec-20 05:53 295 18 gusting 32 3.9
2014-Dec-20 05:38 302 14 gusting 33 3.9
2014-Dec-20 05:23 294 19 gusting 33 3.9
2014-Dec-20 05:08 263 24 gusting 41 3.9
2014-Dec-20 04:53 279 31 gusting 42 3.3
2014-Dec-20 04:37 296 33 gusting 48 3.9
2014-Dec-20 04:22 290 26 gusting 44 3.9
2014-Dec-20 04:07 292 11 gusting 33 3.9
2014-Dec-20 03:52 292 13 gusting 33 3.3
2014-Dec-20 03:37 328 25 gusting 63 4.4
2014-Dec-20 03:22 288 38 gusting 47 4.4
2014-Dec-20 03:07 277 27 gusting 50 4.4
2014-Dec-20 02:52 300 23 gusting 52 5.0
2014-Dec-20 02:36 274 33 gusting 48 4.4
2014-Dec-20 02:21 288 25 gusting 43 4.4
2014-Dec-20 02:06 298 26 gusting 41 3.9
2014-Dec-20 01:50 333 7 gusting 16 2.8
2014-Dec-20 01:35 333 3 gusting 21 2.8
2014-Dec-20 01:20 331 9 gusting 25 3.3
2014-Dec-20 01:05 276 19 gusting 34 3.3
2014-Dec-20 00:50 275 24 gusting 54 3.3
2014-Dec-20 00:34 301 22 gusting 48 4.4
2014-Dec-20 00:19 300 26 gusting 60 4.4
2014-Dec-20 00:04 279 36 gusting 56 5.0
2014-Dec-19 23:49 291 35 gusting 52 5.0
2014-Dec-19 23:34 280 32 gusting 63 5.0
2014-Dec-19 23:19 276 49 gusting 69 5.0
2014-Dec-19 23:05 290 44 gusting 70 4.4
2014-Dec-19 22:48 286 42 gusting 65 5.0
2014-Dec-19 22:33 288 7 gusting 21 3.9
2014-Dec-19 22:18 292 13 gusting 27 3.3
2014-Dec-19 22:04 331 2 gusting 19 2.8
2014-Dec-19 21:48 323 12 gusting 22 2.8
2014-Dec-19 21:33 331 19 gusting 32 3.9
2014-Dec-19 21:17 283 19 gusting 28 5.0
2014-Dec-19 21:03 288 18 gusting 33 4.4
2014-Dec-19 20:47 290 21 gusting 39 4.4
2014-Dec-19 20:33 283 40 gusting 60 5.0
2014-Dec-19 20:17 337 18 gusting 39 5.0
2014-Dec-19 20:02 329 21 gusting 47 4.4
2014-Dec-19 19:47 309 39 gusting 57 5.0
2014-Dec-19 19:31 288 32 gusting 73 5.0
2014-Dec-19 19:16 286 45 gusting 66 4.4
2014-Dec-19 19:01 296 41 gusting 79 4.4
2014-Dec-19 18:46 303 49 gusting 75 4.4
2014-Dec-19 18:31 301 52 gusting 100 3.9
2014-Dec-19 18:15 314 72 gusting 103 5.0
2014-Dec-19 18:00 297 76 gusting 107 4.4
2014-Dec-19 17:45 285 67 gusting 96 3.9
2014-Dec-19 17:31 281 75 gusting 104 3.3
2014-Dec-19 17:17 288 48 gusting 86 4.4
2014-Dec-19 17:00 293 58 gusting 94 5.6
2014-Dec-19 16:44 276 47 gusting 84 4.4
2014-Dec-19 16:30 276 59 gusting 108 3.3
2014-Dec-19 16:14 294 18 gusting 49 4.4
2014-Dec-19 15:59 281 33 gusting 59 4.4
2014-Dec-19 15:44 309 38 gusting 60 3.9
2014-Dec-19 15:29 281 47 gusting 74 3.9
2014-Dec-19 15:14 330 49 gusting 69 3.9
2014-Dec-19 14:58 286 39 gusting 90 3.9
2014-Dec-19 14:43 316 50 gusting 72 4.4
2014-Dec-19 14:28 290 46 gusting 69 4.4
2014-Dec-19 14:13 273 39 gusting 71 4.4
2014-Dec-19 13:58 282 40 gusting 68 5.0
2014-Dec-19 13:43 267 43 gusting 61 5.0
2014-Dec-19 13:27 290 44 gusting 66 5.0
2014-Dec-19 13:12 262 28 gusting 48 4.4
2014-Dec-19 12:57 247 28 gusting 45 4.4
2014-Dec-19 12:43 281 33 gusting 55 4.4
2014-Dec-19 12:27 266 37 gusting 53 4.4
2014-Dec-19 12:12 216 31 gusting 46 4.4
2014-Dec-19 11:58 233 29 gusting 55 3.3
2014-Dec-19 11:41 303 43 gusting 63 4.4
2014-Dec-19 11:26 257 26 gusting 49 3.3
2014-Dec-19 11:11 252 46 gusting 83 2.8
2014-Dec-19 10:56 263 33 gusting 58 3.9
2014-Dec-19 10:41 271 32 gusting 53 3.9
2014-Dec-19 10:25 244 25 gusting 62 3.3
2014-Dec-19 10:10 285 34 gusting 62 4.4